Time;durP1;ratioP1;P1;durP2;ratioP2;P2;SDS_P1;SDS_P2;PMS_P1;PMS_P2;Temp;Humidity;BMP_temperature;BMP_pressure;BME280_temperature;BME280_humidity;BME280_pressure;Samples;Min_cycle;Max_cycle;Signal;HPM_P1;HPM_P2
2022/02/09 00:01:48;;;;;;;;;;;;;;;18.34;59.27;101616.78;5047584;28;1442;-36
2022/02/09 00:04:25;;;;;;;;;;;;;;;18.31;59.59;101617.03;5044107;28;1661;-36
2022/02/09 00:07:03;;;;;;;;;;;;;;;18.37;59.60;101621.94;5047622;28;1687;-36
2022/02/09 00:09:30;;;;;;;;;;;;;;;18.24;60.25;101622.81;5043628;28;1432;-36
2022/02/09 00:12:04;;;;;;;;;;;;;;;18.25;60.34;101634.38;5033363;28;1241;-36
2022/02/09 00:14:39;;;;;;;;;;;;;;;18.26;60.42;101645.00;5049701;28;1578;-36
2022/02/09 00:20:14;;;;;;;;;;;;;;;18.20;60.19;101633.84;5044973;28;1836;-36
2022/02/09 00:23:09;;;;;;;;;;;;;;;18.18;60.03;101628.59;5050239;28;1717;-35
2022/02/09 00:28:28;;;;;;;;;;;;;;;18.15;60.05;101620.78;5032683;28;2014;-35
2022/02/09 00:31:30;;;;;;;;;;;;;;;18.12;60.03;101623.69;5061305;28;1900;-35
2022/02/09 00:58:43;;;;;;;;;;;;;;;18.26;59.18;101626.25;5000456;28;1849;-36
2022/02/09 01:40:46;;;;;;;;;;;;;;;18.40;58.11;101605.63;5053381;28;2473;-36
2022/02/09 01:57:02;;;;;;;;;;;;;;;18.31;58.40;101606.31;5064448;28;1973;-36
2022/02/09 01:59:30;;;;;;;;;;;;;;;18.24;58.27;101605.88;5058866;28;2361;-37
2022/02/09 02:01:57;;;;;;;;;;;;;;;18.23;58.56;101605.03;5064640;28;1781;-36
2022/02/09 02:04:25;;;;;;;;;;;;;;;18.22;58.86;101610.50;5065499;28;1859;-36
2022/02/09 02:06:52;;;;;;;;;;;;;;;18.22;58.90;101600.66;5058767;28;1647;-36
2022/02/09 02:09:20;;;;;;;;;;;;;;;18.28;58.77;101610.06;5065418;28;1591;-35
2022/02/09 02:11:50;;;;;;;;;;;;;;;18.29;58.48;101587.69;5062719;28;1820;-36
2022/02/09 02:14:23;;;;;;;;;;;;;;;18.29;58.23;101603.75;5064737;28;1724;-36
2022/02/09 02:16:54;;;;;;;;;;;;;;;18.27;58.56;101594.97;5064409;28;1971;-36
2022/02/09 02:19:32;;;;;;;;;;;;;;;18.23;58.49;101601.50;5057354;28;1765;-35
2022/02/09 02:22:12;;;;;;;;;;;;;;;18.25;58.51;101611.13;5054262;28;1509;-36
2022/02/09 02:25:12;;;;;;;;;;;;;;;18.20;58.54;101597.22;5042671;28;1536;-36
2022/02/09 02:44:36;;;;;;;;;;;;;;;18.22;58.38;101611.38;5063695;28;2017;-36
2022/02/09 03:08:59;;;;;;;;;;;;;;;18.22;58.20;101607.81;5012295;28;1187;-31
2022/02/09 03:11:48;;;;;;;;;;;;;;;18.20;58.25;101621.31;5033845;28;1916;-31
2022/02/09 03:14:19;;;;;;;;;;;;;;;18.22;58.39;101613.16;5033807;28;1600;-31
2022/02/09 03:16:53;;;;;;;;;;;;;;;18.22;58.26;101623.88;5032992;28;1985;-31
2022/02/09 03:22:17;;;;;;;;;;;;;;;18.18;58.20;101609.00;5033204;28;1799;-31
2022/02/09 03:25:04;;;;;;;;;;;;;;;18.19;58.02;101606.22;5033660;28;1644;-30
2022/02/09 03:27:48;;;;;;;;;;;;;;;18.12;58.58;101609.44;5025604;28;1072;-31
2022/02/09 03:44:22;;;;;;;;;;;;;;;18.19;58.01;101603.53;5033293;28;1814;-31
2022/02/09 03:49:42;;;;;;;;;;;;;;;18.21;57.77;101592.72;5033077;28;1868;-31
2022/02/09 03:52:22;;;;;;;;;;;;;;;18.17;58.22;101594.78;5033375;28;1641;-31
2022/02/09 03:54:57;;;;;;;;;;;;;;;18.21;58.07;101600.78;5033289;28;1873;-31
2022/02/09 03:57:26;;;;;;;;;;;;;;;18.22;58.27;101591.75;5033376;28;1906;-31
2022/02/09 03:59:56;;;;;;;;;;;;;;;18.19;57.87;101579.47;5033320;28;1838;-32
2022/02/09 04:02:22;;;;;;;;;;;;;;;18.16;58.71;101595.72;5032333;28;1740;-31
2022/02/09 04:04:55;;;;;;;;;;;;;;;18.17;58.09;101608.16;5032912;28;1894;-31
2022/02/09 04:07:21;;;;;;;;;;;;;;;18.13;58.32;101609.34;5029576;28;1822;-30
2022/02/09 04:09:51;;;;;;;;;;;;;;;18.12;58.13;101602.25;5033029;28;1834;-30
2022/02/09 04:12:30;;;;;;;;;;;;;;;18.13;58.03;101601.31;5033738;28;1031;-31
2022/02/09 04:15:00;;;;;;;;;;;;;;;18.14;57.97;101594.13;5033781;28;1672;-31
2022/02/09 04:17:33;;;;;;;;;;;;;;;18.16;58.14;101610.94;5033011;28;1967;-31
2022/02/09 04:36:04;;;;;;;;;;;;;;;18.14;58.06;101616.38;5125703;27;1840;-35
2022/02/09 04:37:01;;;;;;;;;;;;;;;18.13;58.19;101624.56;5120835;28;1550;-34
2022/02/09 04:39:34;;;;;;;;;;;;;;;18.12;58.49;101623.69;5120058;28;1307;-34
2022/02/09 04:42:30;;;;;;;;;;;;;;;18.12;58.24;101631.72;5118967;28;1984;-34
2022/02/09 04:45:19;;;;;;;;;;;;;;;18.16;57.92;101646.59;5106498;28;1929;-34
2022/02/09 04:47:54;;;;;;;;;;;;;;;18.13;57.99;101646.81;5119796;28;1644;-34
2022/02/09 04:50:25;;;;;;;;;;;;;;;18.12;57.94;101644.25;5119993;28;1141;-34
2022/02/09 04:53:19;;;;;;;;;;;;;;;18.14;58.42;101656.53;5123132;28;1023;-34
2022/02/09 04:55:56;;;;;;;;;;;;;;;18.13;57.79;101651.31;5120491;28;1053;-34
2022/02/09 04:58:37;;;;;;;;;;;;;;;18.13;58.13;101644.13;5127023;28;1843;-34
2022/02/09 05:01:11;;;;;;;;;;;;;;;18.15;57.59;101636.84;5113165;28;1906;-34
2022/02/09 05:23:34;;;;;;;;;;;;;;;18.15;57.88;101681.50;5089184;28;1738;-34
2022/02/09 05:26:04;;;;;;;;;;;;;;;18.10;57.91;101673.78;5091189;28;1831;-34
2022/02/09 05:28:32;;;;;;;;;;;;;;;18.11;57.70;101664.81;5098708;28;1618;-34
2022/02/09 05:30:59;;;;;;;;;;;;;;;18.14;57.77;101672.59;5096345;28;1816;-34
2022/02/09 05:33:25;;;;;;;;;;;;;;;18.08;57.79;101678.38;5088707;28;1810;-35
2022/02/09 05:35:52;;;;;;;;;;;;;;;18.02;58.02;101665.44;5085621;28;1768;-34
2022/02/09 05:38:19;;;;;;;;;;;;;;;18.05;57.82;101670.59;5086228;28;1693;-34
2022/02/09 05:40:46;;;;;;;;;;;;;;;18.05;57.84;101681.31;5086051;28;1981;-34
2022/02/09 05:43:14;;;;;;;;;;;;;;;18.02;57.91;101686.84;5085979;28;1629;-34
2022/02/09 05:46:01;;;;;;;;;;;;;;;18.01;58.05;101674.44;5083543;28;1552;-34
2022/02/09 05:51:21;;;;;;;;;;;;;;;18.06;57.93;101683.88;5063924;28;1667;-34
2022/02/09 05:54:02;;;;;;;;;;;;;;;18.08;57.84;101700.69;5083643;28;1487;-34
2022/02/09 05:56:41;;;;;;;;;;;;;;;18.11;57.56;101701.44;5087188;28;1023;-34
2022/02/09 05:59:16;;;;;;;;;;;;;;;18.12;57.77;101700.44;5085800;28;1896;-34
2022/02/09 06:01:44;;;;;;;;;;;;;;;18.14;57.62;101707.41;5085516;28;1974;-34
2022/02/09 06:04:11;;;;;;;;;;;;;;;18.15;57.50;101713.63;5085671;28;1641;-34
2022/02/09 06:06:37;;;;;;;;;;;;;;;18.09;57.79;101704.22;5085558;28;1689;-34
2022/02/09 06:09:04;;;;;;;;;;;;;;;18.13;57.78;101716.41;5075871;28;2038;-34
2022/02/09 06:11:37;;;;;;;;;;;;;;;18.08;57.62;101714.06;5086986;28;1070;-34
2022/02/09 06:14:40;;;;;;;;;;;;;;;18.07;57.88;101717.69;5081811;28;1712;-34
2022/02/09 06:20:01;;;;;;;;;;;;;;;18.05;57.77;101724.13;5042842;28;2507;-34
2022/02/09 06:22:27;;;;;;;;;;;;;;;18.03;57.69;101710.84;5090440;28;1910;-34
2022/02/09 06:24:54;;;;;;;;;;;;;;;18.07;57.69;101716.84;5083332;28;1590;-34
2022/02/09 06:27:21;;;;;;;;;;;;;;;18.16;57.81;101734.06;5067001;28;1710;-34
2022/02/09 06:29:48;;;;;;;;;;;;;;;18.15;57.39;101738.59;5070273;28;1766;-34
2022/02/09 06:32:18;;;;;;;;;;;;;;;18.13;57.68;101729.81;5084231;28;1497;-34
2022/02/09 06:34:45;;;;;;;;;;;;;;;18.14;57.40;101747.56;5082674;28;1610;-34
2022/02/09 06:37:15;;;;;;;;;;;;;;;18.11;57.43;101739.75;5072243;28;1650;-34
2022/02/09 06:39:44;;;;;;;;;;;;;;;18.13;57.52;101745.00;5084068;28;1954;-34
2022/02/09 06:42:11;;;;;;;;;;;;;;;18.11;57.41;101754.97;5078767;28;1910;-34
2022/02/09 06:44:37;;;;;;;;;;;;;;;18.09;57.41;101747.03;5072890;28;1741;-34
2022/02/09 06:47:04;;;;;;;;;;;;;;;18.11;57.62;101763.84;5083642;28;1991;-34
2022/02/09 06:49:33;;;;;;;;;;;;;;;18.04;57.70;101757.19;5084965;28;1669;-34
2022/02/09 06:51:59;;;;;;;;;;;;;;;18.06;57.60;101752.59;5077839;28;1663;-34
2022/02/09 06:54:30;;;;;;;;;;;;;;;18.05;57.61;101751.75;5084569;28;1617;-34
2022/02/09 06:57:08;;;;;;;;;;;;;;;18.03;57.76;101753.66;5089659;28;1064;-34
2022/02/09 06:59:38;;;;;;;;;;;;;;;18.06;57.51;101763.28;5082219;28;1812;-34
2022/02/09 07:02:06;;;;;;;;;;;;;;;18.06;57.77;101771.31;5082127;28;1971;-34
2022/02/09 07:04:34;;;;;;;;;;;;;;;18.04;57.40;101759.88;5084365;28;1320;-34
2022/02/09 07:07:01;;;;;;;;;;;;;;;18.06;57.72;101771.31;5079149;28;1482;-34
2022/02/09 07:09:28;;;;;;;;;;;;;;;18.11;57.54;101771.88;5078513;28;1894;-34
2022/02/09 07:11:55;;;;;;;;;;;;;;;18.10;57.63;101762.13;5089072;28;999;-34
2022/02/09 07:14:24;;;;;;;;;;;;;;;18.11;57.36;101763.84;5083670;28;1644;-34
2022/02/09 07:16:56;;;;;;;;;;;;;;;18.10;57.63;101764.78;5078854;28;1586;-34
2022/02/09 07:19:22;;;;;;;;;;;;;;;18.05;57.45;101753.56;5074889;28;1412;-34
2022/02/09 07:21:50;;;;;;;;;;;;;;;18.04;57.87;101763.38;5071737;28;1922;-34
2022/02/09 07:24:19;;;;;;;;;;;;;;;17.99;58.07;101773.56;5073017;28;1589;-34
2022/02/09 07:27:01;;;;;;;;;;;;;;;18.02;57.99;101772.50;5077933;28;1304;-34
2022/02/09 07:29:27;;;;;;;;;;;;;;;18.01;57.45;101771.66;5075247;28;1524;-34
2022/02/09 07:31:54;;;;;;;;;;;;;;;18.46;56.92;101766.75;5070608;28;1568;-34
2022/02/09 07:34:20;;;;;;;;;;;;;;;19.21;55.63;101781.13;5076300;28;1879;-34
2022/02/09 07:36:47;;;;;;;;;;;;;;;19.64;54.44;101765.38;5076592;28;1835;-34
2022/02/09 07:39:15;;;;;;;;;;;;;;;19.93;57.43;101765.03;5080812;28;1857;-34
2022/02/09 07:41:43;;;;;;;;;;;;;;;20.44;55.43;101790.66;5082148;28;2089;-34
2022/02/09 07:44:27;;;;;;;;;;;;;;;20.42;55.04;101773.81;5079070;28;1983;-34
2022/02/09 07:47:05;;;;;;;;;;;;;;;20.21;55.33;101779.00;5074593;28;1721;-34
2022/02/09 07:49:50;;;;;;;;;;;;;;;20.23;55.75;101772.56;5078580;28;1805;-34
2022/02/09 07:52:23;;;;;;;;;;;;;;;20.43;56.02;101789.81;5076562;28;1764;-34
2022/02/09 07:54:51;;;;;;;;;;;;;;;20.55;54.70;101771.00;5083278;28;1668;-35
2022/02/09 07:57:18;;;;;;;;;;;;;;;20.32;54.98;101775.50;5066216;28;1815;-35
2022/02/09 07:59:44;;;;;;;;;;;;;;;20.40;54.02;101786.50;5079272;28;1330;-34
2022/02/09 08:02:11;;;;;;;;;;;;;;;20.30;55.58;101778.31;5079235;28;1991;-35
2022/02/09 08:04:37;;;;;;;;;;;;;;;20.32;54.36;101778.19;5077900;28;1946;-34
2022/02/09 08:07:04;;;;;;;;;;;;;;;20.89;52.94;101768.34;5072639;28;1563;-34
2022/02/09 08:09:38;;;;;;;;;;;;;;;20.30;54.27;101785.53;5073248;28;1915;-34
2022/02/09 08:20:35;;;;;;;;;;;;;;;19.84;55.70;101803.31;5077296;28;1651;-35
2022/02/09 08:28:51;;;;;;;;;;;;;;;19.88;55.17;101794.06;5064582;28;1511;-34
2022/02/09 08:36:49;;;;;;;;;;;;;;;19.57;56.49;101782.06;5079080;28;1578;-34
2022/02/09 08:39:16;;;;;;;;;;;;;;;19.38;56.39;101812.94;5084432;28;1051;-34
2022/02/09 08:41:46;;;;;;;;;;;;;;;19.36;56.13;101803.28;5080564;28;1902;-34
2022/02/09 08:44:18;;;;;;;;;;;;;;;19.33;56.55;101825.81;5083962;28;1852;-33
2022/02/09 08:46:44;;;;;;;;;;;;;;;19.36;56.23;101825.59;5075205;28;1332;-34
2022/02/09 08:49:11;;;;;;;;;;;;;;;19.34;56.25;101838.28;5079609;28;1463;-33
2022/02/09 08:51:40;;;;;;;;;;;;;;;19.21;57.48;101822.19;5084453;28;1887;-34
2022/02/09 08:54:07;;;;;;;;;;;;;;;19.21;57.23;101824.03;5079463;28;1473;-34
2022/02/09 08:56:38;;;;;;;;;;;;;;;19.34;56.49;101832.91;5081075;28;1582;-34
2022/02/09 08:59:07;;;;;;;;;;;;;;;19.24;57.00;101826.50;5075125;28;1789;-35
2022/02/09 09:01:39;;;;;;;;;;;;;;;19.16;56.71;101844.94;5081584;28;1935;-34
2022/02/09 09:04:15;;;;;;;;;;;;;;;19.26;56.44;101840.66;5083157;28;1593;-35
2022/02/09 09:06:43;;;;;;;;;;;;;;;19.16;57.39;101835.09;5078459;28;1816;-34
2022/02/09 09:15:06;;;;;;;;;;;;;;;19.11;58.17;101844.44;5044107;28;1792;-34
2022/02/09 09:17:48;;;;;;;;;;;;;;;19.01;57.57;101823.63;5082766;28;1975;-35
2022/02/09 10:02:39;;;;;;;;;;;;;;;19.71;56.56;101800.69;5059070;28;2134;-35
2022/02/09 10:34:09;;;;;;;;;;;;;;;19.68;57.33;101782.13;5078202;28;1524;-35
2022/02/09 10:36:55;;;;;;;;;;;;;;;19.76;57.17;101803.06;5081261;28;1555;-37
2022/02/09 10:39:32;;;;;;;;;;;;;;;19.66;57.84;101798.31;5074972;28;1422;-35
2022/02/09 10:42:13;;;;;;;;;;;;;;;19.72;55.96;101780.94;5074471;28;1910;-35
2022/02/09 10:44:48;;;;;;;;;;;;;;;19.64;57.15;101780.66;5076669;28;1690;-35
2022/02/09 10:47:22;;;;;;;;;;;;;;;19.57;57.00;101764.13;5085773;28;1713;-35
2022/02/09 10:50:04;;;;;;;;;;;;;;;19.52;57.52;101787.78;5089666;28;2127;-35
2022/02/09 10:52:39;;;;;;;;;;;;;;;19.45;57.33;101763.22;5080742;28;1946;-35
2022/02/09 10:55:25;;;;;;;;;;;;;;;19.46;57.40;101775.66;5090180;28;1416;-35
2022/02/09 10:57:54;;;;;;;;;;;;;;;19.51;57.58;101774.47;5090972;28;1631;-35
2022/02/09 11:00:23;;;;;;;;;;;;;;;19.47;57.57;101773.84;5084150;28;1601;-35
2022/02/09 11:02:58;;;;;;;;;;;;;;;19.39;57.88;101782.44;5087659;28;1906;-36
2022/02/09 11:05:27;;;;;;;;;;;;;;;19.41;58.25;101787.72;5078234;28;1597;-36
2022/02/09 11:07:54;;;;;;;;;;;;;;;19.42;57.21;101784.91;5086045;28;1007;-35
2022/02/09 11:10:22;;;;;;;;;;;;;;;19.36;57.30;101763.91;5085238;28;1815;-35
2022/02/09 11:12:52;;;;;;;;;;;;;;;19.36;57.92;101782.69;5076959;28;1777;-35
2022/02/09 11:15:24;;;;;;;;;;;;;;;19.37;57.76;101779.03;5080243;28;1430;-36
2022/02/09 11:17:52;;;;;;;;;;;;;;;19.34;57.86;101781.94;5092772;28;1773;-35
2022/02/09 11:20:28;;;;;;;;;;;;;;;19.34;57.99;101784.63;5078742;28;1051;-35
2022/02/09 11:22:55;;;;;;;;;;;;;;;19.29;57.88;101770.69;5081743;28;1914;-35
2022/02/09 11:25:31;;;;;;;;;;;;;;;19.31;57.87;101767.91;5078513;28;1801;-35
2022/02/09 11:28:35;;;;;;;;;;;;;;;19.28;57.92;101763.63;5094323;28;1123;-35
2022/02/09 11:31:09;;;;;;;;;;;;;;;19.28;57.19;101766.31;5038621;28;1580;-35
2022/02/09 11:33:56;;;;;;;;;;;;;;;19.30;57.02;101748.28;5069764;28;1675;-35
2022/02/09 11:36:31;;;;;;;;;;;;;;;19.34;57.00;101759.63;5075250;28;1372;-35
2022/02/09 11:39:06;;;;;;;;;;;;;;;19.32;56.89;101753.50;5078090;28;1475;-35
2022/02/09 11:44:29;;;;;;;;;;;;;;;19.55;56.85;101749.13;5081411;28;2035;-35
2022/02/09 11:47:17;;;;;;;;;;;;;;;19.51;57.40;101759.22;5078157;28;1844;-35
2022/02/09 11:53:05;;;;;;;;;;;;;;;19.58;57.20;101757.81;5074285;28;1745;-34
2022/02/09 12:10:20;;;;;;;;;;;;;;;19.83;57.53;101761.34;5082121;28;1772;-36
2022/02/09 12:12:59;;;;;;;;;;;;;;;19.88;56.83;101750.28;5074364;28;1563;-36
2022/02/09 12:18:39;;;;;;;;;;;;;;;19.82;57.96;101754.28;5064704;28;1466;-35
2022/02/09 12:21:21;;;;;;;;;;;;;;;19.85;56.78;101745.97;5077209;28;1570;-35
2022/02/09 12:23:52;;;;;;;;;;;;;;;19.66;57.44;101741.13;5077011;28;1890;-35
2022/02/09 12:26:23;;;;;;;;;;;;;;;19.69;57.80;101751.63;5076609;28;1625;-35
2022/02/09 12:28:59;;;;;;;;;;;;;;;19.66;57.85;101751.88;5074441;28;1952;-35
2022/02/09 12:31:26;;;;;;;;;;;;;;;19.55;58.03;101749.13;5055289;28;1950;-35
2022/02/09 12:33:57;;;;;;;;;;;;;;;19.51;58.52;101739.59;5081445;28;1631;-35
2022/02/09 12:36:33;;;;;;;;;;;;;;;19.50;58.37;101746.78;5088475;28;1039;-35
2022/02/09 12:39:04;;;;;;;;;;;;;;;19.50;59.04;101753.97;5083923;28;1819;-35
2022/02/09 12:41:34;;;;;;;;;;;;;;;19.43;57.93;101735.66;5088633;28;1784;-35
2022/02/09 12:44:03;;;;;;;;;;;;;;;19.51;58.01;101731.53;5077488;28;1981;-35
2022/02/09 12:46:31;;;;;;;;;;;;;;;19.50;57.95;101735.19;5092707;28;1457;-35
2022/02/09 12:49:05;;;;;;;;;;;;;;;19.47;58.67;101731.75;5080077;28;1689;-35
2022/02/09 12:51:35;;;;;;;;;;;;;;;19.48;58.02;101733.50;5089345;28;1881;-35
2022/02/09 12:54:04;;;;;;;;;;;;;;;19.47;58.99;101744.31;5083585;28;1342;-35
2022/02/09 12:56:39;;;;;;;;;;;;;;;19.48;58.10;101748.75;5088656;28;1491;-35
2022/02/09 12:59:07;;;;;;;;;;;;;;;19.48;58.27;101748.75;5091531;28;1664;-35
2022/02/09 13:01:43;;;;;;;;;;;;;;;19.47;58.39;101742.50;5085175;28;1659;-35
2022/02/09 13:04:27;;;;;;;;;;;;;;;19.46;58.70;101735.44;5086708;28;1910;-35
2022/02/09 13:07:00;;;;;;;;;;;;;;;19.55;57.91;101722.28;5089943;28;1851;-36
2022/02/09 13:09:29;;;;;;;;;;;;;;;19.56;57.66;101746.34;5089715;28;2013;-36
2022/02/09 13:11:58;;;;;;;;;;;;;;;19.50;58.46;101740.56;5083221;28;1094;-35
2022/02/09 13:14:36;;;;;;;;;;;;;;;19.44;58.29;101715.06;5078173;28;1405;-35
2022/02/09 13:17:27;;;;;;;;;;;;;;;19.46;57.96;101738.13;5086209;28;1686;-35
2022/02/09 13:20:27;;;;;;;;;;;;;;;19.53;57.70;101729.59;5087856;28;1933;-35
2022/02/09 14:14:00;;;;;;;;;;;;;;;19.30;57.10;101721.47;5066485;28;2089;-35
2022/02/09 14:16:54;;;;;;;;;;;;;;;19.14;56.18;101724.44;5080264;28;1528;-35
2022/02/09 14:23:46;;;;;;;;;;;;;;;19.09;54.64;101721.22;5076363;28;1787;-36
2022/02/09 14:53:15;;;;;;;;;;;;;;;19.64;56.84;101726.97;5074352;28;1447;-35
2022/02/09 14:58:28;;;;;;;;;;;;;;;19.81;57.05;101721.19;5074749;28;1813;-35
2022/02/09 15:01:04;;;;;;;;;;;;;;;19.85;55.82;101717.28;5085646;28;1923;-35
2022/02/09 15:04:03;;;;;;;;;;;;;;;19.82;56.77;101733.66;5078924;28;1988;-35
2022/02/09 15:06:53;;;;;;;;;;;;;;;19.85;56.42;101721.81;5071706;28;1801;-36
2022/02/09 15:09:37;;;;;;;;;;;;;;;19.95;56.35;101719.28;5073252;28;1611;-35
2022/02/09 15:12:16;;;;;;;;;;;;;;;19.97;56.90;101726.22;5071560;28;1888;-35
2022/02/09 15:15:00;;;;;;;;;;;;;;;19.96;57.78;101729.06;5078201;28;1456;-35
2022/02/09 15:17:40;;;;;;;;;;;;;;;19.85;58.63;101725.34;5075924;28;1631;-36
2022/02/09 15:22:58;;;;;;;;;;;;;;;19.79;59.79;101730.34;5054983;28;1988;-35
2022/02/09 15:25:32;;;;;;;;;;;;;;;19.83;60.49;101721.06;5071703;28;1596;-35
2022/02/09 15:28:01;;;;;;;;;;;;;;;19.85;60.80;101736.06;5074298;28;1242;-35
2022/02/09 15:30:33;;;;;;;;;;;;;;;19.83;61.45;101737.19;5072429;28;1737;-35
2022/02/09 15:33:03;;;;;;;;;;;;;;;19.74;61.44;101749.47;5076599;28;1702;-34
2022/02/09 15:35:35;;;;;;;;;;;;;;;19.82;59.90;101736.34;5070831;28;1510;-35
2022/02/09 15:38:15;;;;;;;;;;;;;;;19.70;59.40;101742.59;5072756;28;1532;-35
2022/02/09 15:40:52;;;;;;;;;;;;;;;19.81;60.05;101753.41;5070342;28;1260;-35
2022/02/09 15:43:46;;;;;;;;;;;;;;;19.87;59.85;101744.03;5061171;28;1906;-35
2022/02/09 15:57:46;;;;;;;;;;;;;;;19.77;60.15;101765.34;5066225;28;1804;-34
2022/02/09 16:06:15;;;;;;;;;;;;;;;20.21;57.80;101747.66;5073531;28;1590;-35
2022/02/09 16:09:09;;;;;;;;;;;;;;;20.57;57.40;101751.13;5073123;28;2245;-35
2022/02/09 16:21:01;;;;;;;;;;;;;;;20.53;55.87;101781.91;5013655;28;1565;-35
2022/02/09 16:23:14;;;;;;;;;;;;;;;20.48;56.04;101796.66;5072977;28;1984;-35
2022/02/09 16:26:03;;;;;;;;;;;;;;;20.62;56.04;101800.00;5077300;28;1600;-35
2022/02/09 16:45:16;;;;;;;;;;;;;;;20.74;59.49;101832.25;5073987;28;1967;-35
2022/02/09 16:47:58;;;;;;;;;;;;;;;20.72;58.19;101837.75;5068747;28;1421;-35
2022/02/09 16:50:33;;;;;;;;;;;;;;;20.83;59.33;101839.59;5073317;28;1404;-35
2022/02/09 16:53:06;;;;;;;;;;;;;;;20.77;59.45;101845.44;5071362;28;1429;-35
2022/02/09 17:21:03;;;;;;;;;;;;;;;20.26;62.24;101881.59;5071549;28;1200;-35
2022/02/09 17:23:40;;;;;;;;;;;;;;;20.23;61.62;101888.06;5071874;28;1914;-34
2022/02/09 17:26:12;;;;;;;;;;;;;;;20.00;63.03;101867.47;5073321;28;1594;-34
2022/02/09 17:28:41;;;;;;;;;;;;;;;19.99;62.88;101887.22;5070737;28;1360;-34
2022/02/09 17:34:19;;;;;;;;;;;;;;;19.98;63.49;101888.19;5074026;28;1876;-35
2022/02/09 17:37:05;;;;;;;;;;;;;;;19.94;65.02;101890.25;5072758;28;1447;-34
2022/02/09 17:53:27;;;;;;;;;;;;;;;19.88;65.01;101895.22;5071191;28;1631;-35
2022/02/09 17:55:59;;;;;;;;;;;;;;;19.84;65.43;101895.44;5077885;28;1303;-35
2022/02/09 17:58:29;;;;;;;;;;;;;;;19.79;66.85;101902.97;5073062;28;1869;-35
2022/02/09 18:00:55;;;;;;;;;;;;;;;19.72;67.14;101907.09;5071012;28;1482;-35
2022/02/09 18:03:22;;;;;;;;;;;;;;;19.74;67.53;101909.66;5083347;28;1494;-35
2022/02/09 18:05:51;;;;;;;;;;;;;;;19.79;66.83;101916.38;5078805;28;1969;-34
2022/02/09 18:08:23;;;;;;;;;;;;;;;19.94;65.34;101911.72;5085364;28;1257;-35
2022/02/09 18:11:01;;;;;;;;;;;;;;;20.13;63.75;101921.94;5084050;28;1111;-35
2022/02/09 18:30:30;;;;;;;;;;;;;;;20.38;62.62;101945.13;5066680;28;1644;-36
2022/02/09 18:33:12;;;;;;;;;;;;;;;20.40;63.07;101961.13;5082078;28;1630;-36
2022/02/09 18:43:54;;;;;;;;;;;;;;;20.02;64.64;101962.16;5080007;28;1953;-35
2022/02/09 18:46:31;;;;;;;;;;;;;;;20.00;64.71;101982.91;5076605;28;1706;-36
2022/02/09 18:56:53;;;;;;;;;;;;;;;20.05;64.74;101978.94;5082489;28;1552;-36
2022/02/09 19:00:22;;;;;;;;;;;;;;;19.96;64.60;101978.75;5081624;28;1450;-36
2022/02/09 19:02:59;;;;;;;;;;;;;;;19.97;63.86;101978.59;5082808;28;1516;-35
2022/02/09 19:05:31;;;;;;;;;;;;;;;19.90;63.40;101995.28;5082628;28;1910;-37
2022/02/09 19:08:19;;;;;;;;;;;;;;;19.85;65.08;102004.50;5075284;28;1478;-35
2022/02/09 19:19:20;;;;;;;;;;;;;;;19.91;64.96;102013.94;5073203;28;1527;-35
2022/02/09 19:30:01;;;;;;;;;;;;;;;19.84;66.40;102016.22;5042843;28;1773;-36
2022/02/09 19:32:58;;;;;;;;;;;;;;;19.90;64.80;102012.25;5073854;28;1468;-35
2022/02/09 19:46:46;;;;;;;;;;;;;;;19.59;64.58;102021.59;5081904;28;1412;-35
2022/02/09 19:49:19;;;;;;;;;;;;;;;19.52;64.88;102023.00;5083602;28;1436;-34
2022/02/09 19:52:02;;;;;;;;;;;;;;;19.37;64.10;102027.63;5083004;28;1676;-34
2022/02/09 19:54:41;;;;;;;;;;;;;;;19.45;65.15;102028.78;5075734;28;1488;-36
2022/02/09 19:57:08;;;;;;;;;;;;;;;19.41;64.32;102040.72;5086048;28;1949;-35
2022/02/09 19:59:37;;;;;;;;;;;;;;;19.41;65.38;102040.72;5079667;28;1885;-35
2022/02/09 20:02:06;;;;;;;;;;;;;;;19.34;64.28;102039.44;5088218;28;1943;-35
2022/02/09 20:04:32;;;;;;;;;;;;;;;19.41;65.12;102053.28;5073264;28;1902;-35
2022/02/09 20:07:00;;;;;;;;;;;;;;;19.46;64.73;102054.66;5070506;28;1450;-35
2022/02/09 20:09:26;;;;;;;;;;;;;;;19.47;64.51;102029.53;5073448;28;1897;-35
2022/02/09 20:11:53;;;;;;;;;;;;;;;19.55;63.27;102028.16;5063385;28;1824;-35
2022/02/09 20:14:20;;;;;;;;;;;;;;;19.58;63.38;102036.00;5070278;28;1592;-35
2022/02/09 20:16:46;;;;;;;;;;;;;;;19.71;63.87;102027.94;5078906;28;1401;-34
2022/02/09 20:19:13;;;;;;;;;;;;;;;19.62;63.62;102034.81;5081534;28;1225;-35
2022/02/09 20:21:39;;;;;;;;;;;;;;;19.50;64.44;102035.66;5071263;28;1443;-36
2022/02/09 20:24:12;;;;;;;;;;;;;;;19.48;63.39;102036.63;5077081;28;1910;-37
2022/02/09 20:26:38;;;;;;;;;;;;;;;19.51;63.46;102034.72;5076842;28;1594;-35
2022/02/09 20:29:09;;;;;;;;;;;;;;;19.44;63.50;102043.19;5074571;28;1494;-35
2022/02/09 20:31:44;;;;;;;;;;;;;;;19.37;63.79;102049.94;5075590;28;1674;-36
2022/02/09 20:34:19;;;;;;;;;;;;;;;19.37;64.54;102052.63;5076118;28;1504;-35
2022/02/09 20:36:46;;;;;;;;;;;;;;;19.32;64.21;102054.78;5074201;28;1511;-36
2022/02/09 20:39:19;;;;;;;;;;;;;;;19.22;64.99;102049.19;5074508;28;1880;-36
2022/02/09 20:41:49;;;;;;;;;;;;;;;19.28;64.20;102059.50;5068260;28;1693;-35
2022/02/09 20:44:25;;;;;;;;;;;;;;;19.27;64.33;102062.28;5073605;28;1914;-35
2022/02/09 20:46:57;;;;;;;;;;;;;;;19.19;64.59;102048.53;5071468;28;1561;-35
2022/02/09 20:49:26;;;;;;;;;;;;;;;19.11;65.51;102051.75;5071320;28;1580;-35
2022/02/09 20:51:56;;;;;;;;;;;;;;;19.11;65.26;102056.25;5068576;28;1832;-35
2022/02/09 20:54:38;;;;;;;;;;;;;;;19.12;63.92;102063.31;5069613;28;1551;-35
2022/02/09 20:57:09;;;;;;;;;;;;;;;19.06;65.62;102070.81;5067413;28;1448;-35
2022/02/09 20:59:42;;;;;;;;;;;;;;;19.07;65.26;102082.41;5070959;28;1436;-35
2022/02/09 21:02:33;;;;;;;;;;;;;;;18.99;64.99;102071.34;5071221;28;1715;-35
2022/02/09 21:05:20;;;;;;;;;;;;;;;18.96;66.07;102069.75;5078005;28;1918;-35
2022/02/09 21:07:56;;;;;;;;;;;;;;;18.96;65.94;102064.38;5078305;28;1894;-35
2022/02/09 21:10:53;;;;;;;;;;;;;;;18.96;65.00;102075.09;5072812;28;1803;-35
2022/02/09 21:13:35;;;;;;;;;;;;;;;18.98;65.76;102070.50;5089674;28;1629;-35
2022/02/09 21:16:18;;;;;;;;;;;;;;;18.97;65.73;102078.63;5077505;28;1500;-35
2022/02/09 21:54:48;;;;;;;;;;;;;;;18.83;65.18;102106.34;5034743;28;1492;-34
2022/02/09 21:57:21;;;;;;;;;;;;;;;18.81;64.66;102097.56;5075256;28;1247;-35
2022/02/09 22:00:17;;;;;;;;;;;;;;;18.79;64.77;102084.25;5077201;28;1944;-35
2022/02/09 22:16:44;;;;;;;;;;;;;;;18.74;65.63;102096.19;5081468;28;1590;-35
2022/02/09 22:19:43;;;;;;;;;;;;;;;18.74;66.33;102097.09;5079781;28;1586;-35
2022/02/09 22:22:29;;;;;;;;;;;;;;;18.83;65.88;102095.63;5087900;28;1786;-35
2022/02/09 22:27:42;;;;;;;;;;;;;;;18.82;65.25;102104.63;5071117;28;1483;-35
2022/02/09 22:49:50;;;;;;;;;;;;;;;18.79;64.52;102103.00;5023394;28;1665;-35
2022/02/09 22:55:07;;;;;;;;;;;;;;;18.78;64.09;102095.03;5023103;28;1667;-35
2022/02/09 22:57:42;;;;;;;;;;;;;;;18.77;64.54;102096.00;5015756;28;1796;-35
2022/02/09 23:00:15;;;;;;;;;;;;;;;18.77;64.49;102090.66;5025833;28;1441;-35
2022/02/09 23:02:47;;;;;;;;;;;;;;;18.33;63.99;102027.47;5015447;28;1444;-35
2022/02/09 23:05:32;;;;;;;;;;;;;;;18.72;64.33;102098.13;5023297;28;1914;-35
2022/02/09 23:08:17;;;;;;;;;;;;;;;18.73;63.92;102106.06;5019064;28;1158;-34
2022/02/09 23:11:04;;;;;;;;;;;;;;;18.75;63.98;102111.34;5022582;28;1518;-35
2022/02/09 23:13:40;;;;;;;;;;;;;;;18.69;64.05;102113.44;5014186;28;1810;-35
2022/02/09 23:16:19;;;;;;;;;;;;;;;18.71;63.83;102117.84;5020140;28;1609;-35
2022/02/09 23:21:56;;;;;;;;;;;;;;;18.60;64.52;102097.09;5023334;28;1788;-35
2022/02/09 23:28:30;;;;;;;;;;;;;;;18.62;64.44;102125.53;4978249;28;1143;-35
2022/02/09 23:55:54;;;;;;;;;;;;;;;18.29;63.92;102118.72;5023893;28;1769;-35
